createdAt,value
2017-10-21T00:00:40.456Z,48.68
2017-10-21T00:01:41.068Z,48.78
2017-10-21T00:02:41.682Z,48.87
2017-10-21T00:03:42.293Z,49.06
2017-10-21T00:04:42.905Z,49.06
2017-10-21T00:05:43.515Z,48.87
2017-10-21T00:06:44.156Z,48.78
2017-10-21T00:07:44.767Z,48.87
2017-10-21T00:08:45.384Z,49.26
2017-10-21T00:09:45.993Z,49.26
2017-10-21T00:10:46.604Z,48.87
2017-10-21T00:11:47.215Z,49.16
2017-10-21T00:12:47.826Z,49.06
2017-10-21T00:13:48.437Z,49.26
2017-10-21T00:14:49.049Z,49.06
2017-10-21T00:15:49.663Z,49.16
2017-10-21T00:16:50.280Z,49.06
2017-10-21T00:17:50.888Z,49.16
2017-10-21T00:18:51.500Z,49.16
2017-10-21T00:19:52.113Z,48.87
2017-10-21T00:20:52.722Z,49.06
2017-10-21T00:21:53.333Z,48.87
2017-10-21T00:22:53.943Z,49.16
2017-10-21T00:23:54.554Z,48.78
2017-10-21T00:24:55.194Z,48.78
2017-10-21T00:25:55.806Z,48.78
2017-10-21T00:26:56.422Z,48.58
2017-10-21T00:27:57.031Z,48.49
2017-10-21T00:28:57.644Z,48.58
2017-10-21T00:29:58.262Z,48.58
2017-10-21T00:30:58.867Z,48.49
2017-10-21T00:31:59.486Z,48.39
2017-10-21T00:33:00.126Z,48.39
2017-10-21T00:34:00.736Z,48.30
2017-10-21T00:35:01.346Z,48.39
2017-10-21T00:36:01.965Z,48.30
2017-10-21T00:37:02.572Z,48.39
2017-10-21T00:38:03.184Z,48.30
2017-10-21T00:39:03.795Z,48.39
2017-10-21T00:40:04.409Z,48.49
2017-10-21T00:41:05.050Z,48.21
2017-10-21T00:42:05.668Z,48.58
2017-10-21T00:43:06.283Z,48.68
2017-10-21T00:44:06.888Z,48.49
2017-10-21T00:45:07.498Z,47.82
2017-10-21T00:46:08.109Z,48.02
2017-10-21T00:47:08.721Z,47.73
2017-10-21T00:48:09.333Z,47.82
2017-10-21T00:49:09.943Z,47.92
2017-10-21T00:50:10.554Z,48.02
2017-10-21T00:51:11.172Z,47.92
2017-10-21T00:52:11.780Z,48.02
2017-10-21T00:53:12.395Z,47.54
2017-10-21T00:54:13.006Z,47.73
2017-10-21T00:55:13.617Z,47.63
2017-10-21T00:56:14.236Z,47.73
2017-10-21T00:57:14.845Z,47.82
2017-10-21T00:58:15.457Z,47.63
2017-10-21T00:59:16.072Z,47.63
2017-10-21T01:00:16.690Z,47.63
2017-10-21T01:01:17.334Z,47.54
2017-10-21T01:02:17.951Z,47.34
2017-10-21T01:03:18.559Z,47.54
2017-10-21T01:04:19.175Z,47.54
2017-10-21T01:05:19.785Z,47.54
2017-10-21T01:06:20.396Z,47.34
2017-10-21T01:07:21.009Z,47.25
2017-10-21T01:08:21.624Z,47.44
2017-10-21T01:09:22.233Z,47.25
2017-10-21T01:10:22.851Z,47.34
2017-10-21T01:11:23.465Z,47.34
2017-10-21T01:12:24.073Z,47.25
2017-10-21T01:13:24.684Z,47.25
2017-10-21T01:14:25.299Z,47.54
2017-10-21T01:15:25.941Z,47.54
2017-10-21T01:16:26.554Z,47.63
2017-10-21T01:17:27.163Z,47.63
2017-10-21T01:18:27.779Z,47.73
2017-10-21T01:19:28.387Z,47.61
2017-10-21T01:20:29.003Z,47.63
2017-10-21T01:21:29.650Z,47.73
2017-10-21T01:22:30.264Z,47.73
2017-10-21T01:23:30.874Z,47.63
2017-10-21T01:24:31.487Z,47.54
2017-10-21T01:25:32.099Z,47.63
2017-10-21T01:26:32.715Z,47.63
2017-10-21T01:27:33.328Z,47.73
2017-10-21T01:28:33.936Z,47.92
2017-10-21T01:29:34.553Z,47.73
2017-10-21T01:30:35.169Z,47.82
2017-10-21T01:31:35.779Z,47.63
2017-10-21T01:32:36.389Z,47.73
2017-10-21T01:33:37.003Z,47.73
2017-10-21T01:34:37.656Z,47.54
2017-10-21T01:35:38.258Z,47.54
2017-10-21T01:36:38.876Z,48.02
2017-10-21T01:37:39.485Z,48.02
2017-10-21T01:38:40.096Z,48.58
2017-10-21T01:39:40.712Z,48.39
2017-10-21T01:40:41.326Z,48.39
2017-10-21T01:41:41.941Z,48.58
2017-10-21T01:42:42.550Z,48.39
2017-10-21T01:43:43.167Z,48.49
2017-10-21T01:44:43.775Z,48.78
2017-10-21T01:45:44.387Z,48.39
2017-10-21T01:46:45.029Z,48.49
2017-10-21T01:47:45.671Z,48.49
2017-10-21T01:48:46.286Z,48.49
2017-10-21T01:49:46.896Z,48.21
2017-10-21T01:50:47.542Z,48.11
2017-10-21T01:51:48.150Z,48.49
2017-10-21T01:52:48.762Z,48.78
2017-10-21T01:53:49.406Z,48.30
2017-10-21T01:54:50.019Z,48.68
2017-10-21T01:55:50.627Z,48.49
2017-10-21T01:56:51.239Z,48.49
2017-10-21T01:57:51.851Z,49.06
2017-10-21T01:58:52.461Z,48.97
2017-10-21T01:59:53.072Z,48.78
2017-10-21T02:00:53.714Z,49.06
2017-10-21T02:01:54.325Z,48.78
2017-10-21T02:02:54.937Z,48.87
2017-10-21T02:03:55.583Z,49.06
2017-10-21T02:04:56.190Z,49.16
2017-10-21T02:05:56.800Z,49.35
2017-10-21T02:06:57.412Z,48.97
2017-10-21T02:07:58.055Z,48.97
2017-10-21T02:08:58.666Z,49.63
2017-10-21T02:09:59.279Z,49.26
2017-10-21T02:10:59.891Z,49.26
2017-10-21T02:12:00.509Z,49.35
2017-10-21T02:13:01.123Z,49.26
2017-10-21T02:14:01.731Z,49.63
2017-10-21T02:15:02.343Z,49.63
2017-10-21T02:16:02.961Z,49.63
2017-10-21T02:17:03.565Z,49.35
2017-10-21T02:18:04.176Z,49.44
2017-10-21T02:19:04.790Z,49.26
2017-10-21T02:20:05.415Z,49.26
2017-10-21T02:21:06.051Z,49.26
2017-10-21T02:22:06.662Z,49.44
2017-10-21T02:23:07.273Z,49.54
2017-10-21T02:24:07.885Z,49.82
2017-10-21T02:25:08.496Z,49.82
2017-10-21T02:26:09.107Z,49.73
2017-10-21T02:27:09.719Z,49.73
2017-10-21T02:28:10.334Z,49.92
2017-10-21T02:29:10.943Z,50.01
2017-10-21T02:30:11.555Z,50.11
2017-10-21T02:31:12.200Z,49.92
2017-10-21T02:32:12.813Z,49.54
2017-10-21T02:33:13.432Z,49.61
2017-10-21T02:34:14.039Z,49.44
2017-10-21T02:35:14.650Z,49.44
2017-10-21T02:36:15.262Z,49.44
2017-10-21T02:37:15.880Z,49.63
2017-10-21T02:38:16.518Z,49.63
2017-10-21T02:39:17.126Z,50.11
2017-10-21T02:40:17.768Z,50.11
2017-10-21T02:41:18.379Z,49.99
2017-10-21T02:42:18.989Z,50.11
2017-10-21T02:43:19.603Z,50.01
2017-10-21T02:44:20.243Z,50.11
2017-10-21T02:45:20.855Z,50.11
2017-10-21T02:46:21.466Z,50.11
2017-10-21T02:47:22.077Z,50.01
2017-10-21T02:48:22.688Z,50.01
2017-10-21T02:49:23.306Z,50.11
2017-10-21T02:50:23.913Z,50.11
2017-10-21T02:51:24.530Z,49.73
2017-10-21T02:52:25.140Z,49.82
2017-10-21T02:53:25.752Z,49.92
2017-10-21T02:54:26.365Z,49.82
2017-10-21T02:55:26.977Z,49.92
2017-10-21T02:56:27.588Z,49.92
2017-10-21T02:57:28.199Z,49.82
2017-10-21T02:58:28.816Z,50.01
2017-10-21T02:59:29.424Z,49.73
2017-10-21T03:00:30.037Z,49.82
2017-10-21T03:01:30.689Z,49.73
2017-10-21T03:02:31.296Z,50.01
2017-10-21T03:03:31.908Z,49.82
2017-10-21T03:04:32.524Z,50.01
2017-10-21T03:05:33.139Z,50.01
2017-10-21T03:06:33.746Z,50.01
2017-10-21T03:07:34.357Z,49.82
2017-10-21T03:08:34.974Z,49.92
2017-10-21T03:09:35.584Z,49.92
2017-10-21T03:10:36.194Z,49.82
2017-10-21T03:11:36.810Z,49.92
2017-10-21T03:12:37.421Z,50.01
2017-10-21T03:13:38.032Z,49.73
2017-10-21T03:14:38.644Z,49.92
2017-10-21T03:15:39.258Z,50.01
2017-10-21T03:16:39.896Z,49.73
2017-10-21T03:17:40.509Z,49.73
2017-10-21T03:18:41.150Z,49.63
2017-10-21T03:19:41.761Z,49.54
2017-10-21T03:20:42.373Z,49.35
2017-10-21T03:21:42.991Z,49.44
2017-10-21T03:22:43.605Z,49.54
2017-10-21T03:23:44.214Z,49.44
2017-10-21T03:24:44.829Z,49.35
2017-10-21T03:25:45.477Z,49.54
2017-10-21T03:26:46.118Z,49.54
2017-10-21T03:27:46.730Z,49.73
2017-10-21T03:28:47.352Z,49.63
2017-10-21T03:29:47.996Z,49.63
2017-10-21T03:30:48.607Z,49.63
2017-10-21T03:31:49.224Z,49.54
2017-10-21T03:32:49.830Z,49.73
2017-10-21T03:33:50.442Z,49.54
2017-10-21T03:34:51.054Z,49.54
2017-10-21T03:35:51.666Z,49.54
2017-10-21T03:36:52.282Z,49.26
2017-10-21T03:37:52.889Z,49.54
2017-10-21T03:38:53.506Z,49.63
2017-10-21T03:39:54.122Z,49.35
2017-10-21T03:40:54.737Z,49.63
2017-10-21T03:41:55.351Z,49.54
2017-10-21T03:42:55.964Z,49.44
2017-10-21T03:43:56.578Z,49.54
2017-10-21T03:44:57.192Z,49.26
2017-10-21T03:45:57.802Z,49.44
2017-10-21T03:46:58.414Z,49.26
2017-10-21T03:47:59.026Z,49.26
2017-10-21T03:48:59.636Z,49.44
2017-10-21T03:50:00.253Z,49.44
2017-10-21T03:51:00.863Z,49.26
2017-10-21T03:52:01.474Z,49.26
2017-10-21T03:53:02.084Z,49.26
2017-10-21T03:54:02.700Z,49.26
2017-10-21T03:55:03.313Z,49.26
2017-10-21T03:56:03.923Z,49.06
2017-10-21T03:57:04.537Z,49.26
2017-10-21T03:58:05.153Z,49.35
2017-10-21T03:59:05.767Z,49.26
2017-10-21T04:00:06.381Z,49.26
2017-10-21T04:01:06.988Z,49.26
2017-10-21T04:02:07.631Z,49.26
2017-10-21T04:03:08.240Z,49.44
2017-10-21T04:04:08.859Z,49.44
2017-10-21T04:05:09.471Z,49.35
2017-10-21T04:06:10.080Z,49.26
2017-10-21T04:07:10.694Z,49.26
2017-10-21T04:08:11.306Z,49.35
2017-10-21T04:09:11.917Z,49.16
2017-10-21T04:10:12.529Z,49.26
2017-10-21T04:11:13.147Z,49.26
2017-10-21T04:12:13.791Z,49.23
2017-10-21T04:13:14.400Z,49.26
2017-10-21T04:14:15.040Z,49.26
2017-10-21T04:15:15.652Z,49.04
2017-10-21T04:16:16.296Z,49.32
2017-10-21T04:17:16.939Z,49.32
2017-10-21T04:18:17.551Z,49.04
2017-10-21T04:19:18.162Z,49.23
2017-10-21T04:20:18.774Z,49.32
2017-10-21T04:21:19.386Z,49.23
2017-10-21T04:22:19.997Z,49.51
2017-10-21T04:23:20.610Z,49.51
2017-10-21T04:24:21.226Z,49.42
2017-10-21T04:25:21.868Z,49.42
2017-10-21T04:26:22.484Z,49.51
2017-10-21T04:27:23.095Z,49.51
2017-10-21T04:28:23.708Z,49.61
2017-10-21T04:29:24.319Z,49.61
2017-10-21T04:30:24.929Z,49.51
2017-10-21T04:31:25.547Z,49.71
2017-10-21T04:32:26.156Z,49.90
2017-10-21T04:33:26.771Z,49.99
2017-10-21T04:34:27.411Z,49.99
2017-10-21T04:35:28.022Z,49.90
2017-10-21T04:36:28.633Z,49.99
2017-10-21T04:37:29.244Z,49.90
2017-10-21T04:38:29.887Z,49.90
2017-10-21T04:39:30.497Z,49.90
2017-10-21T04:40:31.108Z,49.99
2017-10-21T04:41:31.724Z,49.90
2017-10-21T04:42:32.335Z,49.77
2017-10-21T04:43:32.953Z,49.58
2017-10-21T04:44:33.568Z,49.42
2017-10-21T04:45:34.177Z,50.15
2017-10-21T04:46:34.816Z,49.87
2017-10-21T04:47:35.429Z,50.15
2017-10-21T04:48:36.045Z,50.06
2017-10-21T04:49:36.652Z,49.96
2017-10-21T04:50:37.262Z,50.06
2017-10-21T04:51:37.873Z,50.06
2017-10-21T04:52:38.481Z,50.25
2017-10-21T04:53:39.101Z,50.54
2017-10-21T04:54:39.739Z,50.25
2017-10-21T04:55:40.350Z,50.44
2017-10-21T04:56:40.993Z,50.35
2017-10-21T04:57:41.600Z,50.44
2017-10-21T04:58:42.211Z,50.44
2017-10-21T04:59:42.823Z,50.35
2017-10-21T05:00:43.435Z,50.35
2017-10-21T05:01:44.046Z,50.35
2017-10-21T05:02:44.656Z,50.44
2017-10-21T05:03:45.271Z,50.25
2017-10-21T05:04:45.875Z,50.44
2017-10-21T05:05:46.491Z,50.25
2017-10-21T05:06:47.098Z,50.15
2017-10-21T05:07:47.707Z,50.35
2017-10-21T05:08:48.317Z,50.54
2017-10-21T05:09:48.927Z,51.01
2017-10-21T05:10:49.537Z,50.73
2017-10-21T05:11:50.183Z,50.73
2017-10-21T05:12:50.828Z,50.73
2017-10-21T05:13:51.445Z,50.63
2017-10-21T05:14:52.084Z,51.20
2017-10-21T05:15:52.691Z,51.20
2017-10-21T05:16:53.300Z,51.01
2017-10-21T05:17:53.910Z,51.01
2017-10-21T05:18:54.521Z,50.73
2017-10-21T05:19:55.137Z,51.01
2017-10-21T05:20:55.745Z,51.10
2017-10-21T05:21:56.361Z,51.10
2017-10-21T05:22:57.009Z,51.20
2017-10-21T05:23:57.622Z,51.10
2017-10-21T05:24:58.229Z,51.20
2017-10-21T05:25:58.839Z,51.20
2017-10-21T05:26:59.450Z,50.73
2017-10-21T05:28:00.059Z,51.01
2017-10-21T05:29:00.668Z,50.73
2017-10-21T05:30:01.278Z,50.73
2017-10-21T05:31:01.893Z,50.73
2017-10-21T05:32:02.500Z,51.10
2017-10-21T05:33:03.111Z,51.20
2017-10-21T05:34:03.724Z,51.20
2017-10-21T05:35:04.334Z,51.10
2017-10-21T05:36:04.948Z,51.20
2017-10-21T05:37:05.555Z,51.10
2017-10-21T05:38:06.167Z,51.20
2017-10-21T05:39:06.778Z,51.20
2017-10-21T05:40:07.388Z,51.20
2017-10-21T05:41:07.998Z,51.01
2017-10-21T05:42:08.639Z,50.66
2017-10-21T05:43:09.254Z,50.82
2017-10-21T05:44:09.861Z,50.75
2017-10-21T05:45:10.472Z,50.85
2017-10-21T05:46:11.083Z,51.04
2017-10-21T05:47:11.716Z,50.85
2017-10-21T05:48:12.312Z,50.85
2017-10-21T05:49:13.006Z,51.04
2017-10-21T05:50:13.622Z,50.85
2017-10-21T05:51:14.231Z,51.04
2017-10-21T05:52:14.848Z,51.04
2017-10-21T05:53:15.455Z,50.85
2017-10-21T05:54:16.066Z,51.04
2017-10-21T05:55:16.683Z,51.04
2017-10-21T05:56:17.291Z,51.14
2017-10-21T05:57:17.904Z,51.04
2017-10-21T05:58:18.519Z,50.75
2017-10-21T05:59:19.133Z,50.73
2017-10-21T06:00:19.741Z,50.85
2017-10-21T06:01:20.353Z,50.66
2017-10-21T06:02:20.963Z,50.66
2017-10-21T06:03:21.574Z,50.46
2017-10-21T06:04:22.191Z,50.73
2017-10-21T06:05:22.801Z,50.82
2017-10-21T06:06:23.444Z,50.94
2017-10-21T06:07:24.054Z,50.82
2017-10-21T06:08:24.667Z,50.82
2017-10-21T06:09:25.315Z,50.63
2017-10-21T06:10:25.923Z,50.73
2017-10-21T06:11:26.539Z,51.01
2017-10-21T06:12:27.153Z,50.92
2017-10-21T06:13:27.760Z,50.82
2017-10-21T06:14:28.370Z,51.10
2017-10-21T06:15:28.981Z,51.01
2017-10-21T06:16:29.592Z,50.92
2017-10-21T06:17:30.203Z,51.20
2017-10-21T06:18:30.814Z,51.01
2017-10-21T06:19:31.427Z,51.10
2017-10-21T06:20:32.038Z,51.30
2017-10-21T06:21:32.653Z,50.92
2017-10-21T06:22:33.263Z,50.92
2017-10-21T06:23:33.880Z,51.10
2017-10-21T06:24:34.491Z,51.01
2017-10-21T06:25:35.096Z,51.01
2017-10-21T06:26:35.710Z,51.20
2017-10-21T06:27:36.349Z,51.10
2017-10-21T06:28:36.959Z,51.39
2017-10-21T06:29:37.569Z,51.39
2017-10-21T06:30:38.180Z,51.39
2017-10-21T06:31:38.821Z,51.30
2017-10-21T06:32:39.439Z,51.58
2017-10-21T06:33:40.048Z,51.20
2017-10-21T06:34:40.661Z,51.39
2017-10-21T06:35:41.272Z,51.78
2017-10-21T06:36:41.883Z,51.10
2017-10-21T06:37:42.493Z,51.39
2017-10-21T06:38:43.134Z,51.78
2017-10-21T06:39:43.743Z,51.49
2017-10-21T06:40:44.386Z,51.49
2017-10-21T06:41:45.005Z,51.78
2017-10-21T06:42:45.645Z,51.49
2017-10-21T06:43:46.257Z,51.39
2017-10-21T06:44:46.873Z,51.30
2017-10-21T06:45:47.487Z,50.92
2017-10-21T06:46:48.097Z,50.92
2017-10-21T06:47:48.741Z,51.10
2017-10-21T06:48:49.353Z,51.30
2017-10-21T06:49:49.995Z,51.20
2017-10-21T06:50:50.608Z,51.01
2017-10-21T06:51:51.218Z,51.10
2017-10-21T06:52:51.829Z,51.01
2017-10-21T06:53:52.442Z,51.01
2017-10-21T06:54:53.060Z,51.14
2017-10-21T06:55:53.675Z,51.10
2017-10-21T06:56:54.285Z,51.32
2017-10-21T06:57:54.897Z,51.14
2017-10-21T06:58:55.507Z,51.23
2017-10-21T06:59:56.150Z,51.14
2017-10-21T07:00:56.763Z,51.14
2017-10-21T07:01:57.374Z,51.04
2017-10-21T07:02:57.987Z,51.23
2017-10-21T07:03:58.598Z,51.14
2017-10-21T07:04:59.212Z,50.82
2017-10-21T07:05:59.823Z,50.92
2017-10-21T07:07:00.434Z,51.20
2017-10-21T07:08:01.046Z,51.39
2017-10-21T07:09:01.658Z,51.39
2017-10-21T07:10:02.320Z,52.06
2017-10-21T07:11:02.931Z,51.68
2017-10-21T07:12:03.544Z,51.78
2017-10-21T07:13:04.159Z,51.87
2017-10-21T07:14:04.771Z,51.87
2017-10-21T07:15:05.383Z,51.89
2017-10-21T07:16:06.002Z,51.87
2017-10-21T07:17:06.611Z,51.58
2017-10-21T07:18:07.227Z,51.78
2017-10-21T07:19:07.838Z,51.68
2017-10-21T07:20:08.457Z,51.78
2017-10-21T07:21:09.067Z,51.99
2017-10-21T07:22:09.681Z,52.09
2017-10-21T07:23:10.297Z,52.09
2017-10-21T07:24:10.939Z,51.42
2017-10-21T07:25:11.601Z,51.23
2017-10-21T07:26:12.224Z,51.04
2017-10-21T07:27:12.838Z,51.32
2017-10-21T07:28:13.442Z,51.14
2017-10-21T07:29:14.055Z,51.14
2017-10-21T07:30:14.672Z,51.14
2017-10-21T07:31:15.287Z,51.04
2017-10-21T07:32:15.898Z,51.04
2017-10-21T07:33:16.512Z,51.32
2017-10-21T07:34:17.127Z,50.94
2017-10-21T07:35:17.790Z,50.85
2017-10-21T07:36:18.400Z,50.85
2017-10-21T07:37:19.012Z,50.75
2017-10-21T07:38:19.629Z,50.75
2017-10-21T07:39:20.242Z,51.04
2017-10-21T07:40:20.856Z,50.75
2017-10-21T07:41:21.470Z,50.85
2017-10-21T07:42:22.090Z,50.85
2017-10-21T07:43:22.706Z,51.16
2017-10-21T07:44:23.319Z,51.16
2017-10-21T07:45:23.938Z,50.78
2017-10-21T07:46:24.555Z,50.40
2017-10-21T07:47:25.165Z,50.49
2017-10-21T07:48:25.779Z,50.40
2017-10-21T07:49:26.396Z,50.59
2017-10-21T07:50:27.015Z,50.40
2017-10-21T07:51:27.626Z,50.40
2017-10-21T07:52:28.246Z,50.32
2017-10-21T07:53:28.858Z,50.71
2017-10-21T07:54:29.479Z,50.13
2017-10-21T07:55:30.139Z,50.13
2017-10-21T07:56:30.762Z,49.95
2017-10-21T07:57:31.371Z,49.56
2017-10-21T07:58:31.986Z,49.37
2017-10-21T07:59:32.604Z,49.37
2017-10-21T08:00:33.218Z,49.37
2017-10-21T08:01:33.838Z,49.28
2017-10-21T08:02:34.450Z,49.56
2017-10-21T08:03:35.070Z,49.37
2017-10-21T08:04:35.684Z,49.66
2017-10-21T08:05:36.297Z,49.47
2017-10-21T08:06:36.919Z,49.28
2017-10-21T08:07:37.529Z,49.47
2017-10-21T08:08:38.182Z,49.66
2017-10-21T08:09:38.793Z,49.30
2017-10-21T08:10:39.466Z,49.21
2017-10-21T08:11:40.078Z,49.21
2017-10-21T08:12:40.692Z,49.21
2017-10-21T08:13:41.306Z,48.90
2017-10-21T08:14:41.922Z,48.92
2017-10-21T08:15:42.539Z,48.90
2017-10-21T08:16:43.160Z,49.11
2017-10-21T08:17:43.779Z,49.40
2017-10-21T08:18:44.389Z,49.11
2017-10-21T08:19:45.007Z,49.02
2017-10-21T08:20:45.627Z,49.11
2017-10-21T08:21:46.244Z,49.30
2017-10-21T08:22:46.856Z,49.21
2017-10-21T08:23:47.472Z,48.92
2017-10-21T08:24:48.090Z,49.11
2017-10-21T08:25:48.734Z,49.02
2017-10-21T08:26:49.378Z,49.02
2017-10-21T08:27:49.993Z,48.73
2017-10-21T08:28:50.610Z,48.35
2017-10-21T08:29:51.227Z,48.73
2017-10-21T08:30:51.843Z,48.44
2017-10-21T08:31:52.457Z,48.73
2017-10-21T08:32:53.079Z,48.44
2017-10-21T08:33:53.726Z,48.54
2017-10-21T08:34:54.342Z,48.25
2017-10-21T08:35:54.961Z,48.35
2017-10-21T08:36:55.572Z,48.25
2017-10-21T08:37:56.191Z,48.54
2017-10-21T08:38:56.806Z,48.35
2017-10-21T08:39:57.421Z,48.35
2017-10-21T08:40:58.043Z,48.44
2017-10-21T08:41:58.661Z,48.37
2017-10-21T08:42:59.273Z,48.37
2017-10-21T08:43:59.892Z,47.32
2017-10-21T08:45:00.505Z,47.32
2017-10-21T08:46:01.121Z,47.80
2017-10-21T08:47:01.736Z,47.71
2017-10-21T08:48:02.358Z,47.71
2017-10-21T08:49:02.970Z,47.71
2017-10-21T08:50:03.593Z,47.71
2017-10-21T08:51:04.206Z,47.52
2017-10-21T08:52:04.820Z,47.80
2017-10-21T08:53:05.441Z,47.80
2017-10-21T08:54:06.054Z,47.80
2017-10-21T08:55:06.673Z,47.42
2017-10-21T08:56:07.286Z,47.44
2017-10-21T08:57:07.907Z,47.44
2017-10-21T08:58:08.526Z,47.44
2017-10-21T08:59:09.143Z,47.44
2017-10-21T09:00:09.763Z,47.34
2017-10-21T09:01:10.376Z,46.80
2017-10-21T09:02:10.995Z,46.42
2017-10-21T09:03:11.609Z,46.61
2017-10-21T09:04:12.223Z,45.94
2017-10-21T09:05:12.841Z,46.13
2017-10-21T09:06:13.455Z,46.32
2017-10-21T09:07:14.077Z,45.94
2017-10-21T09:08:14.689Z,46.06
2017-10-21T09:09:15.338Z,45.01
2017-10-21T09:10:15.924Z,45.01
2017-10-21T09:11:16.539Z,45.20
2017-10-21T09:12:17.160Z,44.81
2017-10-21T09:13:17.772Z,44.72
2017-10-21T09:14:18.388Z,44.62
2017-10-21T09:15:19.033Z,44.84
2017-10-21T09:16:19.701Z,44.65
2017-10-21T09:17:20.316Z,44.45
2017-10-21T09:18:20.968Z,44.17
2017-10-21T09:19:21.586Z,44.29
2017-10-21T09:20:22.202Z,43.80
2017-10-21T09:21:22.815Z,43.43
2017-10-21T09:22:23.431Z,43.33
2017-10-21T09:23:24.049Z,42.87
2017-10-21T09:24:24.665Z,42.30
2017-10-21T09:25:25.283Z,41.72
2017-10-21T09:26:25.899Z,42.01
2017-10-21T09:27:26.519Z,42.11
2017-10-21T09:28:27.137Z,41.91
2017-10-21T09:29:27.754Z,41.91
2017-10-21T09:30:28.371Z,41.53
2017-10-21T09:31:28.997Z,41.53
2017-10-21T09:32:29.611Z,41.94
2017-10-21T09:33:30.230Z,41.94
2017-10-21T09:34:30.848Z,41.27
2017-10-21T09:35:31.461Z,40.50
2017-10-21T09:36:32.079Z,40.50
2017-10-21T09:37:32.731Z,40.31
2017-10-21T09:38:33.344Z,39.64
2017-10-21T09:39:33.962Z,39.73
2017-10-21T09:40:34.638Z,39.62
2017-10-21T09:41:35.242Z,40.00
2017-10-21T09:42:35.865Z,40.58
2017-10-21T09:43:36.485Z,40.77
2017-10-21T09:44:37.100Z,40.55
2017-10-21T09:45:37.721Z,40.08
2017-10-21T09:46:38.337Z,40.08
2017-10-21T09:47:38.961Z,39.98
2017-10-21T09:48:39.576Z,39.60
2017-10-21T09:49:40.198Z,39.77
2017-10-21T09:50:40.813Z,39.67
2017-10-21T09:51:41.431Z,40.06
2017-10-21T09:52:42.046Z,40.06
2017-10-21T09:53:42.663Z,40.06
2017-10-21T09:54:43.280Z,40.44
2017-10-21T09:55:43.904Z,40.53
2017-10-21T09:56:44.551Z,40.72
2017-10-21T09:57:45.176Z,40.72
2017-10-21T09:58:45.795Z,40.55
2017-10-21T09:59:46.408Z,40.46
2017-10-21T10:00:47.025Z,40.08
2017-10-21T10:01:47.647Z,39.98
2017-10-21T10:02:48.263Z,39.72
2017-10-21T10:03:48.885Z,39.79
2017-10-21T10:04:49.505Z,39.72
2017-10-21T10:05:50.159Z,40.00
2017-10-21T10:06:50.782Z,39.72
2017-10-21T10:07:51.394Z,39.23
2017-10-21T10:08:52.008Z,39.22
2017-10-21T10:09:52.626Z,39.60
2017-10-21T10:10:53.244Z,39.89
2017-10-21T10:11:53.863Z,39.72
2017-10-21T10:12:54.498Z,39.81
2017-10-21T10:13:55.101Z,39.90
2017-10-21T10:14:55.717Z,39.90
2017-10-21T10:15:56.335Z,39.72
2017-10-21T10:16:56.953Z,39.62
2017-10-21T10:17:57.571Z,39.33
2017-10-21T10:18:58.189Z,39.04
2017-10-21T10:19:58.808Z,39.23
2017-10-21T10:20:59.429Z,38.56
2017-10-21T10:22:00.073Z,38.87
2017-10-21T10:23:00.699Z,38.68
2017-10-21T10:24:01.312Z,38.96
2017-10-21T10:25:01.929Z,38.49
2017-10-21T10:26:02.552Z,37.92
2017-10-21T10:27:03.169Z,37.82
2017-10-21T10:28:03.790Z,38.03
2017-10-21T10:29:04.405Z,37.84
2017-10-21T10:30:05.022Z,37.55
2017-10-21T10:31:05.645Z,37.26
2017-10-21T10:32:06.262Z,37.28
2017-10-21T10:33:06.880Z,36.90
2017-10-21T10:34:07.499Z,36.71
2017-10-21T10:35:08.117Z,36.71
2017-10-21T10:36:08.736Z,36.44
2017-10-21T10:37:09.384Z,36.34
2017-10-21T10:38:10.014Z,36.53
2017-10-21T10:39:10.632Z,35.77
2017-10-21T10:40:11.253Z,35.86
2017-10-21T10:41:11.868Z,35.97
2017-10-21T10:42:12.497Z,35.40
2017-10-21T10:43:13.109Z,35.28
2017-10-21T10:44:13.756Z,35.19
2017-10-21T10:45:14.377Z,35.02
2017-10-21T10:46:14.995Z,35.10
2017-10-21T10:47:15.614Z,34.90
2017-10-21T10:48:16.233Z,34.42
2017-10-21T10:49:16.851Z,34.23
2017-10-21T10:50:17.476Z,33.65
2017-10-21T10:51:18.096Z,33.37
2017-10-21T10:52:18.718Z,33.47
2017-10-21T10:53:19.335Z,33.25
2017-10-21T10:54:19.953Z,33.45
2017-10-21T10:55:20.573Z,33.25
2017-10-21T10:56:21.222Z,33.35
2017-10-21T10:57:21.877Z,33.54
2017-10-21T10:58:22.493Z,33.83
2017-10-21T10:59:23.112Z,33.54
2017-10-21T11:00:23.730Z,33.54
2017-10-21T11:01:24.355Z,33.92
2017-10-21T11:02:24.971Z,32.97
2017-10-21T11:03:25.592Z,32.78
2017-10-21T11:04:26.211Z,32.87
2017-10-21T11:05:26.835Z,32.97
2017-10-21T11:06:27.452Z,32.97
2017-10-21T11:07:28.070Z,32.87
2017-10-21T11:08:28.688Z,32.87
2017-10-21T11:09:29.313Z,32.87
2017-10-21T11:10:29.928Z,32.87
2017-10-21T11:11:30.553Z,32.97
2017-10-21T11:12:31.200Z,32.68
2017-10-21T11:13:31.817Z,32.78
2017-10-21T11:14:32.435Z,32.51
2017-10-21T11:15:33.054Z,32.29
2017-10-21T11:16:33.675Z,31.74
2017-10-21T11:17:34.298Z,31.72
2017-10-21T11:18:34.913Z,31.53
2017-10-21T11:19:35.537Z,31.82
2017-10-21T11:20:36.191Z,31.72
2017-10-21T11:21:36.847Z,31.74
2017-10-21T11:22:37.466Z,31.24
2017-10-21T11:23:38.084Z,31.34
2017-10-21T11:24:38.702Z,30.67
2017-10-21T11:25:39.322Z,31.15
2017-10-21T11:26:39.942Z,31.13
2017-10-21T11:27:40.560Z,31.51
2017-10-21T11:28:41.180Z,31.71
2017-10-21T11:29:41.800Z,31.42
2017-10-21T11:30:42.422Z,31.04
2017-10-21T11:31:43.043Z,31.23
2017-10-21T11:32:43.661Z,31.50
2017-10-21T11:33:44.286Z,31.69
2017-10-21T11:34:44.908Z,31.98
2017-10-21T11:35:45.570Z,32.46
2017-10-21T11:36:46.182Z,32.26
2017-10-21T11:37:46.800Z,32.36
2017-10-21T11:38:47.418Z,32.17
2017-10-21T11:39:48.039Z,32.36
2017-10-21T11:40:48.662Z,32.44
2017-10-21T11:41:49.278Z,32.34
2017-10-21T11:42:49.895Z,32.63
2017-10-21T11:43:50.530Z,32.63
2017-10-21T11:44:51.169Z,32.73
2017-10-21T11:45:51.787Z,32.55
2017-10-21T11:46:52.406Z,32.82
2017-10-21T11:47:53.026Z,32.54
2017-10-21T11:48:53.649Z,33.11
2017-10-21T11:49:54.263Z,32.73
2017-10-21T11:50:54.916Z,32.63
2017-10-21T11:51:55.537Z,32.73
2017-10-21T11:52:56.153Z,32.92
2017-10-21T11:53:56.777Z,33.20
2017-10-21T11:54:57.393Z,33.01
2017-10-21T11:55:58.009Z,33.40
2017-10-21T11:56:58.630Z,33.19
2017-10-21T11:57:59.247Z,33.11
2017-10-21T11:58:59.896Z,33.38
2017-10-21T12:00:00.514Z,33.38
2017-10-21T12:01:01.130Z,33.48
2017-10-21T12:02:01.754Z,33.09
2017-10-21T12:03:02.371Z,33.87
2017-10-21T12:04:02.983Z,33.86
2017-10-21T12:05:03.603Z,33.86
2017-10-21T12:06:04.224Z,33.67
2017-10-21T12:07:04.837Z,34.14
2017-10-21T12:08:05.456Z,33.76
2017-10-21T12:09:06.072Z,33.48
2017-10-21T12:10:06.690Z,34.05
2017-10-21T12:11:07.310Z,33.86
2017-10-21T12:12:07.927Z,33.76
2017-10-21T12:13:08.556Z,33.95
2017-10-21T12:14:09.167Z,34.05
2017-10-21T12:15:09.784Z,34.24
2017-10-21T12:16:10.403Z,34.34
2017-10-21T12:17:11.021Z,34.74
2017-10-21T12:18:11.639Z,34.74
2017-10-21T12:19:12.257Z,34.83
2017-10-21T12:20:12.872Z,34.93
2017-10-21T12:21:13.497Z,35.02
2017-10-21T12:22:14.114Z,34.83
2017-10-21T12:23:14.760Z,34.93
2017-10-21T12:24:15.383Z,34.83
2017-10-21T12:25:15.999Z,34.36
2017-10-21T12:26:16.614Z,34.45
2017-10-21T12:27:17.241Z,34.64
2017-10-21T12:28:17.857Z,34.93
2017-10-21T12:29:18.471Z,34.74
2017-10-21T12:30:19.089Z,34.16
2017-10-21T12:31:19.707Z,34.45
2017-10-21T12:32:20.354Z,34.74
2017-10-21T12:33:20.973Z,34.93
2017-10-21T12:34:21.590Z,34.83
2017-10-21T12:35:22.208Z,34.74
2017-10-21T12:36:22.828Z,34.93
2017-10-21T12:37:23.445Z,34.45
2017-10-21T12:38:24.069Z,34.16
2017-10-21T12:39:24.684Z,34.16
2017-10-21T12:40:25.332Z,34.16
2017-10-21T12:41:25.954Z,34.16
2017-10-21T12:42:26.570Z,34.14
2017-10-21T12:43:27.220Z,34.14
2017-10-21T12:44:27.845Z,34.72
2017-10-21T12:45:28.465Z,34.81
2017-10-21T12:46:29.080Z,34.83
2017-10-21T12:47:29.707Z,34.81
2017-10-21T12:48:30.325Z,34.72
2017-10-21T12:49:30.936Z,34.14
2017-10-21T12:50:31.553Z,33.76
2017-10-21T12:51:32.171Z,33.76
2017-10-21T12:52:32.788Z,34.05
2017-10-21T12:53:33.418Z,33.57
2017-10-21T12:54:34.030Z,33.76
2017-10-21T12:55:34.651Z,33.57
2017-10-21T12:56:35.270Z,33.48
2017-10-21T12:57:35.883Z,33.57
2017-10-21T12:58:36.585Z,33.67
2017-10-21T12:59:37.211Z,34.14
2017-10-21T13:00:37.824Z,33.67